METAR Data
IDs: Format: Raw Decoded Include TAF

Data at: 1328 UTC 26 Feb 2021

LOWW 261320Z 01006KT 330V090 CAVOK 18/07 Q1025 NOSIG